Portada
METAR-TAF:

METAR-TAF

Aeroports :

Roseau, Dominica

latitud: 15-32N, longitud: 061-24W, altitud: 5 m

Observació

L'informe es va fer fa 55 minuts, a les 13:00 UTC
Vent 2 kt del Nord/Nord-Oest
Temperatura 29°C
Humitat 79%
Pressió 1010 hPa
Visibilitat 10 km o més
Escasses núvols a una alçada de 1900 ft

METAR: TDCF 181300Z 33002KT 9999 FEW019 29/25 Q1010

Hora: 09:55 (13:55 UTC)


TAF: manca

Observacions i pronòstics meteorològics de més de 4000 aeroports (METAR i TAF).

Les estacions disponibles són els punts grocs i vermells al mapa.

Posi el ratolí al punt desitjat per veure el nom de l'estació.

Feu clic per veure les observacions i els pronòstics meteorològics.

Per canviar el mapa: feu clic els botons verds amb una creu de color negre per apropar; al botó verd amb un guió per allunyar la imatge; o en les fletxes verdes per a mapes adjacents.


METAR-TAF: